Terminal Aerodrome Forecast
Issued by NWS

Home | Current Version | Previous Version | Text Only | Print | Product List | Glossary On
Versions: 1 2 3 4 5 6 7 8 9 10 11 12 13
769
FTPA31 PHFO 201724
TAFHMK
TAF
PHMK 201724Z 2018/2118 05011G19KT P6SM FEW025 SCT050
     FM201900 05018G27KT P6SM FEW025
     FM210600 05011G19KT P6SM FEW025=

USA.gov is the U.S. government's official web portal to all federal, state and local government web resources and services.